Valparaiso, IN (46383)

12:23 PM CDT on August 29, 2015 (GMT -0500)
North East Side | | Change Station
CLOSE
Current Station
Personal Weather Station
Location: Valparaiso, IN
Elevation: 804 ft
Nearby Weather Stations

Elev 804 ft 41.48 °N, 87.03 °W | Updated 20 hours ago

Thunderstorm
Thunderstorm
72 °F
Feels Like 72 °F
N
7
Wind Variable Wind from South
Gusts 11 mph

Today
High -- | Low -- °F
--% Chance of Precip.
Yesterday
High -- | Low -- °F
Precip. -- in
6:11 AM 7:26 PM
Full, 100% visible
Pressure 30.06 in
Visibility 10.0 miles
Clouds Few 2800 ft
Few 4000 ft
Overcast 9500 ft
Dew Point 64 °F
Humidity 76%
Rainfall in
Snow Depth Not available.
UV 3 out of 12
Pollen 4.20 out of 12
Air Quality Not available.
Flu Activity Not available.
METAR KVPZ 291656Z AUTO 15006KT 10SM FEW028 FEW040 OVC095 21/18 A3007 RMK AO2 RAB18E52 SLP178 P0000 T02060183 TSNO
Pressure 30.06 in
Visibility 10.0 miles
Clouds Few 2800 ft
Few 4000 ft
Overcast 9500 ft
Dew Point 64 °F
Humidity 76%
Rainfall in
Snow Depth Not available.
UV 3 out of 12
Pollen 4.20 out of 12
Air Quality Not available.
Flu Activity Not available.
METAR KVPZ 291656Z AUTO 15006KT 10SM FEW028 FEW040 OVC095 21/18 A3007 RMK AO2 RAB18E52 SLP178 P0000 T02060183 TSNO

10-Day Weather Forecast

×

Almanac

Astronomy

Aug. 29, 2015 Rise Set
Actual Time
Civil Twilight
Nautical Twilight
Astronomical Twilight
Moon
Length of Visible Light
Length of Day
Tomorrow will be .
, % of the Moon is Illuminated

Today's Extremes

State Highs State Lows

Community

WunderPhotos

Upload Photos

1,850,734 photos uploaded!

WunderBlogs® & News

Nearby

Air Quality

  Air Quality AQ Index Pollutant
Not available.

Snow Depth

Station Depth Elevation

Earthquake Activity

City Distance Mag. Time & Date
Minimum magnitude displayed is 2.5.

Coastal Water Temperatures

Place Temperature

Stations

Nearby Weather Stations

Station Location Temp. Windchill Dew Point Humidity Wind Precip. Elev Updated Type